Aviation Digital Data Service (ADDS)

Output produced by METARs form (1753 UTC 01 March 2017)
found at http://aviationweather.gov/adds/metars/
 
KRWI 011735Z 0118/0218 22020G32KT P6SM SCT040 BKN200 
     FM020400 21015G25KT P6SM VCTS OVC040CB 
     TEMPO 0204/0207 3SM -SHRA BR BKN022 
     FM020800 30013G21KT P6SM OVC060 
     FM021200 31010G20KT P6SM SCT250